sensor_id;sensor_type;location;lat;lon;timestamp;P1;P2;P0
53658;PMS5003;41524;35.624;139.698;2023-09-19T00:00:09;2.00;2.00;
53658;PMS5003;41524;35.624;139.698;2023-09-19T00:05:09;3.00;3.00;
53658;PMS5003;41524;35.624;139.698;2023-09-19T00:10:09;1.00;1.00;
53658;PMS5003;41524;35.624;139.698;2023-09-19T00:15:10;3.00;3.00;
53658;PMS5003;41524;35.624;139.698;2023-09-19T00:20:11;1.00;1.00;
53658;PMS5003;41524;35.624;139.698;2023-09-19T00:25:09;2.00;2.00;
53658;PMS5003;41524;35.624;139.698;2023-09-19T00:30:12;2.00;2.00;
53658;PMS5003;41524;35.624;139.698;2023-09-19T00:35:09;2.00;2.00;
53658;PMS5003;41524;35.624;139.698;2023-09-19T00:40:09;1.00;1.00;
53658;PMS5003;41524;35.624;139.698;2023-09-19T00:45:09;2.00;2.00;
53658;PMS5003;41524;35.624;139.698;2023-09-19T00:50:09;2.00;2.00;
53658;PMS5003;41524;35.624;139.698;2023-09-19T00:55:10;0.00;0.00;
53658;PMS5003;41524;35.624;139.698;2023-09-19T01:00:10;2.00;2.00;
53658;PMS5003;41524;35.624;139.698;2023-09-19T01:05:08;2.00;1.00;
53658;PMS5003;41524;35.624;139.698;2023-09-19T01:10:11;1.00;1.00;
53658;PMS5003;41524;35.624;139.698;2023-09-19T01:15:11;2.00;2.00;
53658;PMS5003;41524;35.624;139.698;2023-09-19T01:20:15;2.00;2.00;
53658;PMS5003;41524;35.624;139.698;2023-09-19T01:25:19;2.00;1.00;
53658;PMS5003;41524;35.624;139.698;2023-09-19T01:30:10;2.00;2.00;
53658;PMS5003;41524;35.624;139.698;2023-09-19T01:35:08;1.00;1.00;
53658;PMS5003;41524;35.624;139.698;2023-09-19T01:40:25;1.00;1.00;
53658;PMS5003;41524;35.624;139.698;2023-09-19T01:45:11;2.00;2.00;
53658;PMS5003;41524;35.624;139.698;2023-09-19T01:50:12;1.00;1.00;
53658;PMS5003;41524;35.624;139.698;2023-09-19T01:55:09;3.00;2.00;
53658;PMS5003;41524;35.624;139.698;2023-09-19T02:00:10;0.00;0.00;
53658;PMS5003;41524;35.624;139.698;2023-09-19T02:05:09;2.00;2.00;
53658;PMS5003;41524;35.624;139.698;2023-09-19T02:10:10;2.00;2.00;
53658;PMS5003;41524;35.624;139.698;2023-09-19T02:15:09;2.00;2.00;
53658;PMS5003;41524;35.624;139.698;2023-09-19T02:20:10;0.00;0.00;
53658;PMS5003;41524;35.624;139.698;2023-09-19T02:25:10;0.00;0.00;
53658;PMS5003;41524;35.624;139.698;2023-09-19T02:30:09;2.00;2.00;
53658;PMS5003;41524;35.624;139.698;2023-09-19T02:35:09;2.00;1.00;
53658;PMS5003;41524;35.624;139.698;2023-09-19T02:40:09;1.00;1.00;
53658;PMS5003;41524;35.624;139.698;2023-09-19T02:45:09;1.00;1.00;
53658;PMS5003;41524;35.624;139.698;2023-09-19T02:50:10;3.00;2.00;
53658;PMS5003;41524;35.624;139.698;2023-09-19T02:55:09;0.00;0.00;
53658;PMS5003;41524;35.624;139.698;2023-09-19T03:00:10;1.00;1.00;
53658;PMS5003;41524;35.624;139.698;2023-09-19T03:05:08;3.00;3.00;
53658;PMS5003;41524;35.624;139.698;2023-09-19T03:10:09;2.00;2.00;
53658;PMS5003;41524;35.624;139.698;2023-09-19T03:15:10;1.00;1.00;
53658;PMS5003;41524;35.624;139.698;2023-09-19T03:20:10;2.00;2.00;
53658;PMS5003;41524;35.624;139.698;2023-09-19T03:25:10;2.00;2.00;
53658;PMS5003;41524;35.624;139.698;2023-09-19T03:30:09;1.00;1.00;
53658;PMS5003;41524;35.624;139.698;2023-09-19T03:35:08;1.00;1.00;
53658;PMS5003;41524;35.624;139.698;2023-09-19T03:40:09;1.00;1.00;
53658;PMS5003;41524;35.624;139.698;2023-09-19T03:45:09;2.00;2.00;
53658;PMS5003;41524;35.624;139.698;2023-09-19T03:50:09;3.00;3.00;
53658;PMS5003;41524;35.624;139.698;2023-09-19T03:55:10;2.00;1.00;
53658;PMS5003;41524;35.624;139.698;2023-09-19T04:00:09;2.00;2.00;
53658;PMS5003;41524;35.624;139.698;2023-09-19T04:05:09;3.00;3.00;
53658;PMS5003;41524;35.624;139.698;2023-09-19T04:10:09;3.00;2.00;
53658;PMS5003;41524;35.624;139.698;2023-09-19T04:15:10;1.00;1.00;
53658;PMS5003;41524;35.624;139.698;2023-09-19T04:20:09;2.00;2.00;
53658;PMS5003;41524;35.624;139.698;2023-09-19T04:25:09;3.00;3.00;
53658;PMS5003;41524;35.624;139.698;2023-09-19T04:30:09;3.00;3.00;
53658;PMS5003;41524;35.624;139.698;2023-09-19T04:35:10;3.00;3.00;
53658;PMS5003;41524;35.624;139.698;2023-09-19T04:40:10;3.00;2.00;
53658;PMS5003;41524;35.624;139.698;2023-09-19T04:45:09;1.00;1.00;
53658;PMS5003;41524;35.624;139.698;2023-09-19T04:50:09;2.00;2.00;
53658;PMS5003;41524;35.624;139.698;2023-09-19T04:55:10;0.00;0.00;
53658;PMS5003;41524;35.624;139.698;2023-09-19T05:00:10;2.00;2.00;
53658;PMS5003;41524;35.624;139.698;2023-09-19T05:05:09;2.00;2.00;
53658;PMS5003;41524;35.624;139.698;2023-09-19T05:10:10;2.00;2.00;
53658;PMS5003;41524;35.624;139.698;2023-09-19T05:15:09;5.00;4.00;
53658;PMS5003;41524;35.624;139.698;2023-09-19T05:20:09;3.00;3.00;
53658;PMS5003;41524;35.624;139.698;2023-09-19T05:25:08;2.00;2.00;
53658;PMS5003;41524;35.624;139.698;2023-09-19T05:30:10;3.00;3.00;
53658;PMS5003;41524;35.624;139.698;2023-09-19T05:35:09;2.00;2.00;
53658;PMS5003;41524;35.624;139.698;2023-09-19T05:40:09;2.00;2.00;
53658;PMS5003;41524;35.624;139.698;2023-09-19T05:45:09;3.00;2.00;
53658;PMS5003;41524;35.624;139.698;2023-09-19T05:50:09;1.00;1.00;
53658;PMS5003;41524;35.624;139.698;2023-09-19T05:55:09;3.00;3.00;
53658;PMS5003;41524;35.624;139.698;2023-09-19T06:00:10;4.00;3.00;
53658;PMS5003;41524;35.624;139.698;2023-09-19T06:05:09;2.00;2.00;
53658;PMS5003;41524;35.624;139.698;2023-09-19T06:10:09;3.00;2.00;
53658;PMS5003;41524;35.624;139.698;2023-09-19T06:15:10;3.00;3.00;
53658;PMS5003;41524;35.624;139.698;2023-09-19T06:20:09;4.00;3.00;
53658;PMS5003;41524;35.624;139.698;2023-09-19T06:25:10;5.00;4.00;
53658;PMS5003;41524;35.624;139.698;2023-09-19T06:30:09;4.00;4.00;
53658;PMS5003;41524;35.624;139.698;2023-09-19T06:35:10;3.00;2.00;
53658;PMS5003;41524;35.624;139.698;2023-09-19T06:40:08;3.00;2.00;
53658;PMS5003;41524;35.624;139.698;2023-09-19T06:45:09;5.00;4.00;
53658;PMS5003;41524;35.624;139.698;2023-09-19T06:50:08;3.00;3.00;
53658;PMS5003;41524;35.624;139.698;2023-09-19T06:55:09;5.00;5.00;
53658;PMS5003;41524;35.624;139.698;2023-09-19T07:00:10;4.00;3.00;
53658;PMS5003;41524;35.624;139.698;2023-09-19T07:05:09;4.00;4.00;
53658;PMS5003;41524;35.624;139.698;2023-09-19T07:10:10;5.00;5.00;
53658;PMS5003;41524;35.624;139.698;2023-09-19T07:15:09;7.00;5.00;
53658;PMS5003;41524;35.624;139.698;2023-09-19T07:20:09;5.00;4.00;
53658;PMS5003;41524;35.624;139.698;2023-09-19T07:25:09;5.00;5.00;
53658;PMS5003;41524;35.624;139.698;2023-09-19T07:30:09;4.00;4.00;
53658;PMS5003;41524;35.624;139.698;2023-09-19T07:35:09;10.00;7.00;
53658;PMS5003;41524;35.624;139.698;2023-09-19T07:40:10;7.00;6.00;
53658;PMS5003;41524;35.624;139.698;2023-09-19T07:45:08;6.00;5.00;
53658;PMS5003;41524;35.624;139.698;2023-09-19T07:50:09;5.00;5.00;
53658;PMS5003;41524;35.624;139.698;2023-09-19T07:55:09;8.00;8.00;
53658;PMS5003;41524;35.624;139.698;2023-09-19T08:00:09;4.00;4.00;
53658;PMS5003;41524;35.624;139.698;2023-09-19T08:05:09;7.00;6.00;
53658;PMS5003;41524;35.624;139.698;2023-09-19T08:10:09;7.00;7.00;
53658;PMS5003;41524;35.624;139.698;2023-09-19T08:15:09;12.00;10.00;
53658;PMS5003;41524;35.624;139.698;2023-09-19T08:20:09;14.00;14.00;
53658;PMS5003;41524;35.624;139.698;2023-09-19T08:25:09;10.00;10.00;
53658;PMS5003;41524;35.624;139.698;2023-09-19T08:30:09;13.00;11.00;
53658;PMS5003;41524;35.624;139.698;2023-09-19T08:35:10;9.00;9.00;
53658;PMS5003;41524;35.624;139.698;2023-09-19T08:40:09;13.00;10.00;
53658;PMS5003;41524;35.624;139.698;2023-09-19T08:45:09;14.00;13.00;
53658;PMS5003;41524;35.624;139.698;2023-09-19T08:50:11;14.00;13.00;
53658;PMS5003;41524;35.624;139.698;2023-09-19T08:55:10;14.00;11.00;
53658;PMS5003;41524;35.624;139.698;2023-09-19T09:00:10;15.00;12.00;
53658;PMS5003;41524;35.624;139.698;2023-09-19T09:05:09;11.00;11.00;
53658;PMS5003;41524;35.624;139.698;2023-09-19T09:10:08;18.00;17.00;
53658;PMS5003;41524;35.624;139.698;2023-09-19T09:15:09;19.00;19.00;
53658;PMS5003;41524;35.624;139.698;2023-09-19T09:20:10;18.00;13.00;
53658;PMS5003;41524;35.624;139.698;2023-09-19T09:25:09;15.00;14.00;
53658;PMS5003;41524;35.624;139.698;2023-09-19T09:30:09;15.00;14.00;
53658;PMS5003;41524;35.624;139.698;2023-09-19T09:35:09;13.00;12.00;
53658;PMS5003;41524;35.624;139.698;2023-09-19T09:40:09;13.00;11.00;
53658;PMS5003;41524;35.624;139.698;2023-09-19T09:45:16;13.00;10.00;
53658;PMS5003;41524;35.624;139.698;2023-09-19T09:50:09;15.00;12.00;
53658;PMS5003;41524;35.624;139.698;2023-09-19T09:55:09;16.00;15.00;
53658;PMS5003;41524;35.624;139.698;2023-09-19T10:00:10;16.00;14.00;
53658;PMS5003;41524;35.624;139.698;2023-09-19T10:05:18;15.00;12.00;
53658;PMS5003;41524;35.624;139.698;2023-09-19T10:10:08;22.00;18.00;
53658;PMS5003;41524;35.624;139.698;2023-09-19T10:15:09;16.00;13.00;
53658;PMS5003;41524;35.624;139.698;2023-09-19T10:20:09;23.00;20.00;
53658;PMS5003;41524;35.624;139.698;2023-09-19T10:25:09;23.00;21.00;
53658;PMS5003;41524;35.624;139.698;2023-09-19T10:30:08;19.00;19.00;
53658;PMS5003;41524;35.624;139.698;2023-09-19T10:35:09;24.00;22.00;
53658;PMS5003;41524;35.624;139.698;2023-09-19T10:40:09;21.00;21.00;
53658;PMS5003;41524;35.624;139.698;2023-09-19T10:45:09;17.00;16.00;
53658;PMS5003;41524;35.624;139.698;2023-09-19T10:50:12;18.00;15.00;
53658;PMS5003;41524;35.624;139.698;2023-09-19T10:55:09;20.00;17.00;
53658;PMS5003;41524;35.624;139.698;2023-09-19T11:00:10;20.00;19.00;
53658;PMS5003;41524;35.624;139.698;2023-09-19T11:05:12;16.00;13.00;
53658;PMS5003;41524;35.624;139.698;2023-09-19T11:10:09;17.00;16.00;
53658;PMS5003;41524;35.624;139.698;2023-09-19T11:15:09;19.00;16.00;
53658;PMS5003;41524;35.624;139.698;2023-09-19T11:20:25;14.00;14.00;
53658;PMS5003;41524;35.624;139.698;2023-09-19T11:25:40;17.00;17.00;
53658;PMS5003;41524;35.624;139.698;2023-09-19T11:30:41;18.00;14.00;
53658;PMS5003;41524;35.624;139.698;2023-09-19T11:35:09;13.00;12.00;
53658;PMS5003;41524;35.624;139.698;2023-09-19T11:40:09;13.00;13.00;
53658;PMS5003;41524;35.624;139.698;2023-09-19T11:45:43;17.00;15.00;
53658;PMS5003;41524;35.624;139.698;2023-09-19T11:50:10;19.00;17.00;
53658;PMS5003;41524;35.624;139.698;2023-09-19T11:55:09;16.00;14.00;
53658;PMS5003;41524;35.624;139.698;2023-09-19T12:00:10;14.00;12.00;
53658;PMS5003;41524;35.624;139.698;2023-09-19T12:05:09;12.00;12.00;
53658;PMS5003;41524;35.624;139.698;2023-09-19T12:10:09;16.00;14.00;
53658;PMS5003;41524;35.624;139.698;2023-09-19T12:15:09;20.00;18.00;
53658;PMS5003;41524;35.624;139.698;2023-09-19T12:20:09;17.00;15.00;
53658;PMS5003;41524;35.624;139.698;2023-09-19T12:25:09;15.00;14.00;
53658;PMS5003;41524;35.624;139.698;2023-09-19T12:30:09;20.00;17.00;
53658;PMS5003;41524;35.624;139.698;2023-09-19T12:35:09;15.00;14.00;
53658;PMS5003;41524;35.624;139.698;2023-09-19T12:40:09;15.00;14.00;
53658;PMS5003;41524;35.624;139.698;2023-09-19T12:45:09;11.00;10.00;
53658;PMS5003;41524;35.624;139.698;2023-09-19T12:50:10;16.00;15.00;
53658;PMS5003;41524;35.624;139.698;2023-09-19T12:55:19;15.00;15.00;
53658;PMS5003;41524;35.624;139.698;2023-09-19T13:00:10;15.00;13.00;
53658;PMS5003;41524;35.624;139.698;2023-09-19T13:05:09;17.00;15.00;
53658;PMS5003;41524;35.624;139.698;2023-09-19T13:10:09;16.00;12.00;
53658;PMS5003;41524;35.624;139.698;2023-09-19T13:15:10;16.00;14.00;
53658;PMS5003;41524;35.624;139.698;2023-09-19T13:20:19;13.00;13.00;
53658;PMS5003;41524;35.624;139.698;2023-09-19T13:25:09;23.00;21.00;
53658;PMS5003;41524;35.624;139.698;2023-09-19T13:30:09;15.00;13.00;
53658;PMS5003;41524;35.624;139.698;2023-09-19T13:35:09;15.00;14.00;
53658;PMS5003;41524;35.624;139.698;2023-09-19T13:40:09;14.00;13.00;
53658;PMS5003;41524;35.624;139.698;2023-09-19T13:45:09;15.00;14.00;
53658;PMS5003;41524;35.624;139.698;2023-09-19T13:50:09;21.00;18.00;
53658;PMS5003;41524;35.624;139.698;2023-09-19T13:55:09;20.00;19.00;
53658;PMS5003;41524;35.624;139.698;2023-09-19T14:00:10;19.00;15.00;
53658;PMS5003;41524;35.624;139.698;2023-09-19T14:05:08;22.00;19.00;
53658;PMS5003;41524;35.624;139.698;2023-09-19T14:10:10;25.00;22.00;
53658;PMS5003;41524;35.624;139.698;2023-09-19T14:15:10;17.00;15.00;
53658;PMS5003;41524;35.624;139.698;2023-09-19T14:20:10;12.00;12.00;
53658;PMS5003;41524;35.624;139.698;2023-09-19T14:25:10;19.00;19.00;
53658;PMS5003;41524;35.624;139.698;2023-09-19T14:30:09;17.00;15.00;
53658;PMS5003;41524;35.624;139.698;2023-09-19T14:35:10;24.00;23.00;
53658;PMS5003;41524;35.624;139.698;2023-09-19T14:40:09;22.00;22.00;
53658;PMS5003;41524;35.624;139.698;2023-09-19T14:45:09;23.00;20.00;
53658;PMS5003;41524;35.624;139.698;2023-09-19T14:50:10;20.00;19.00;
53658;PMS5003;41524;35.624;139.698;2023-09-19T14:55:09;13.00;13.00;
53658;PMS5003;41524;35.624;139.698;2023-09-19T15:00:10;18.00;17.00;
53658;PMS5003;41524;35.624;139.698;2023-09-19T15:05:09;16.00;16.00;
53658;PMS5003;41524;35.624;139.698;2023-09-19T15:10:09;23.00;21.00;
53658;PMS5003;41524;35.624;139.698;2023-09-19T15:15:09;23.00;21.00;
53658;PMS5003;41524;35.624;139.698;2023-09-19T15:20:09;19.00;19.00;
53658;PMS5003;41524;35.624;139.698;2023-09-19T15:25:09;18.00;17.00;
53658;PMS5003;41524;35.624;139.698;2023-09-19T15:30:11;14.00;13.00;
53658;PMS5003;41524;35.624;139.698;2023-09-19T15:35:09;27.00;23.00;
53658;PMS5003;41524;35.624;139.698;2023-09-19T15:40:09;15.00;15.00;
53658;PMS5003;41524;35.624;139.698;2023-09-19T15:45:09;17.00;17.00;
53658;PMS5003;41524;35.624;139.698;2023-09-19T15:50:10;16.00;15.00;
53658;PMS5003;41524;35.624;139.698;2023-09-19T15:55:09;21.00;21.00;
53658;PMS5003;41524;35.624;139.698;2023-09-19T16:00:10;25.00;25.00;
53658;PMS5003;41524;35.624;139.698;2023-09-19T16:05:08;18.00;18.00;
53658;PMS5003;41524;35.624;139.698;2023-09-19T16:10:10;20.00;19.00;
53658;PMS5003;41524;35.624;139.698;2023-09-19T16:15:09;21.00;21.00;
53658;PMS5003;41524;35.624;139.698;2023-09-19T16:20:09;15.00;15.00;
53658;PMS5003;41524;35.624;139.698;2023-09-19T16:25:08;20.00;19.00;
53658;PMS5003;41524;35.624;139.698;2023-09-19T16:30:09;19.00;17.00;
53658;PMS5003;41524;35.624;139.698;2023-09-19T16:35:09;21.00;18.00;
53658;PMS5003;41524;35.624;139.698;2023-09-19T16:40:09;20.00;20.00;
53658;PMS5003;41524;35.624;139.698;2023-09-19T16:45:09;18.00;14.00;
53658;PMS5003;41524;35.624;139.698;2023-09-19T16:50:09;16.00;15.00;
53658;PMS5003;41524;35.624;139.698;2023-09-19T16:55:09;19.00;18.00;
53658;PMS5003;41524;35.624;139.698;2023-09-19T17:00:10;17.00;17.00;
53658;PMS5003;41524;35.624;139.698;2023-09-19T17:05:09;21.00;19.00;
53658;PMS5003;41524;35.624;139.698;2023-09-19T17:10:10;25.00;22.00;
53658;PMS5003;41524;35.624;139.698;2023-09-19T17:15:09;23.00;21.00;
53658;PMS5003;41524;35.624;139.698;2023-09-19T17:20:09;17.00;16.00;
53658;PMS5003;41524;35.624;139.698;2023-09-19T17:25:09;17.00;14.00;
53658;PMS5003;41524;35.624;139.698;2023-09-19T17:30:10;17.00;17.00;
53658;PMS5003;41524;35.624;139.698;2023-09-19T17:35:09;18.00;15.00;
53658;PMS5003;41524;35.624;139.698;2023-09-19T17:40:09;22.00;18.00;
53658;PMS5003;41524;35.624;139.698;2023-09-19T17:45:10;17.00;15.00;
53658;PMS5003;41524;35.624;139.698;2023-09-19T17:50:09;17.00;13.00;
53658;PMS5003;41524;35.624;139.698;2023-09-19T17:55:11;16.00;15.00;
53658;PMS5003;41524;35.624;139.698;2023-09-19T18:00:09;21.00;16.00;
53658;PMS5003;41524;35.624;139.698;2023-09-19T18:05:09;15.00;15.00;
53658;PMS5003;41524;35.624;139.698;2023-09-19T18:10:10;16.00;15.00;
53658;PMS5003;41524;35.624;139.698;2023-09-19T18:15:09;13.00;12.00;
53658;PMS5003;41524;35.624;139.698;2023-09-19T18:20:10;20.00;20.00;
53658;PMS5003;41524;35.624;139.698;2023-09-19T18:25:10;16.00;15.00;
53658;PMS5003;41524;35.624;139.698;2023-09-19T18:30:19;19.00;17.00;
53658;PMS5003;41524;35.624;139.698;2023-09-19T18:35:09;13.00;13.00;
53658;PMS5003;41524;35.624;139.698;2023-09-19T18:40:09;18.00;18.00;
53658;PMS5003;41524;35.624;139.698;2023-09-19T18:45:09;15.00;15.00;
53658;PMS5003;41524;35.624;139.698;2023-09-19T18:50:09;16.00;16.00;
53658;PMS5003;41524;35.624;139.698;2023-09-19T18:55:10;16.00;16.00;
53658;PMS5003;41524;35.624;139.698;2023-09-19T19:00:09;12.00;12.00;
53658;PMS5003;41524;35.624;139.698;2023-09-19T19:05:09;20.00;18.00;
53658;PMS5003;41524;35.624;139.698;2023-09-19T19:10:10;11.00;11.00;
53658;PMS5003;41524;35.624;139.698;2023-09-19T19:15:09;13.00;13.00;
53658;PMS5003;41524;35.624;139.698;2023-09-19T19:20:09;13.00;13.00;
53658;PMS5003;41524;35.624;139.698;2023-09-19T19:25:09;17.00;15.00;
53658;PMS5003;41524;35.624;139.698;2023-09-19T19:30:10;14.00;13.00;
53658;PMS5003;41524;35.624;139.698;2023-09-19T19:35:09;13.00;12.00;
53658;PMS5003;41524;35.624;139.698;2023-09-19T19:40:09;14.00;14.00;
53658;PMS5003;41524;35.624;139.698;2023-09-19T19:45:09;16.00;15.00;
53658;PMS5003;41524;35.624;139.698;2023-09-19T19:50:10;12.00;12.00;
53658;PMS5003;41524;35.624;139.698;2023-09-19T19:55:09;13.00;13.00;
53658;PMS5003;41524;35.624;139.698;2023-09-19T20:00:09;15.00;15.00;
53658;PMS5003;41524;35.624;139.698;2023-09-19T20:05:09;15.00;13.00;
53658;PMS5003;41524;35.624;139.698;2023-09-19T20:10:10;13.00;13.00;
53658;PMS5003;41524;35.624;139.698;2023-09-19T20:15:09;17.00;16.00;
53658;PMS5003;41524;35.624;139.698;2023-09-19T20:20:09;17.00;13.00;
53658;PMS5003;41524;35.624;139.698;2023-09-19T20:25:09;16.00;15.00;
53658;PMS5003;41524;35.624;139.698;2023-09-19T20:30:10;15.00;14.00;
53658;PMS5003;41524;35.624;139.698;2023-09-19T20:35:09;13.00;11.00;
53658;PMS5003;41524;35.624;139.698;2023-09-19T20:40:08;12.00;12.00;
53658;PMS5003;41524;35.624;139.698;2023-09-19T20:45:10;21.00;19.00;
53658;PMS5003;41524;35.624;139.698;2023-09-19T20:50:09;13.00;13.00;
53658;PMS5003;41524;35.624;139.698;2023-09-19T20:55:09;17.00;15.00;
53658;PMS5003;41524;35.624;139.698;2023-09-19T21:00:09;14.00;12.00;
53658;PMS5003;41524;35.624;139.698;2023-09-19T21:05:09;16.00;15.00;
53658;PMS5003;41524;35.624;139.698;2023-09-19T21:10:09;16.00;12.00;
53658;PMS5003;41524;35.624;139.698;2023-09-19T21:15:09;18.00;17.00;
53658;PMS5003;41524;35.624;139.698;2023-09-19T21:20:10;14.00;14.00;
53658;PMS5003;41524;35.624;139.698;2023-09-19T21:25:10;23.00;19.00;
53658;PMS5003;41524;35.624;139.698;2023-09-19T21:30:09;16.00;16.00;
53658;PMS5003;41524;35.624;139.698;2023-09-19T21:35:09;17.00;16.00;
53658;PMS5003;41524;35.624;139.698;2023-09-19T21:40:09;15.00;13.00;
53658;PMS5003;41524;35.624;139.698;2023-09-19T21:45:10;16.00;15.00;
53658;PMS5003;41524;35.624;139.698;2023-09-19T21:50:09;18.00;17.00;
53658;PMS5003;41524;35.624;139.698;2023-09-19T21:55:09;24.00;21.00;
53658;PMS5003;41524;35.624;139.698;2023-09-19T22:00:09;20.00;16.00;
53658;PMS5003;41524;35.624;139.698;2023-09-19T22:05:09;26.00;24.00;
53658;PMS5003;41524;35.624;139.698;2023-09-19T22:10:09;14.00;13.00;
53658;PMS5003;41524;35.624;139.698;2023-09-19T22:15:09;22.00;21.00;
53658;PMS5003;41524;35.624;139.698;2023-09-19T22:20:09;19.00;17.00;
53658;PMS5003;41524;35.624;139.698;2023-09-19T22:25:09;18.00;16.00;
53658;PMS5003;41524;35.624;139.698;2023-09-19T22:30:09;20.00;17.00;
53658;PMS5003;41524;35.624;139.698;2023-09-19T22:35:08;14.00;14.00;
53658;PMS5003;41524;35.624;139.698;2023-09-19T22:40:09;17.00;16.00;
53658;PMS5003;41524;35.624;139.698;2023-09-19T22:45:08;17.00;15.00;
53658;PMS5003;41524;35.624;139.698;2023-09-19T22:50:09;23.00;20.00;
53658;PMS5003;41524;35.624;139.698;2023-09-19T22:55:10;24.00;23.00;
53658;PMS5003;41524;35.624;139.698;2023-09-19T23:00:09;22.00;18.00;
53658;PMS5003;41524;35.624;139.698;2023-09-19T23:05:09;19.00;18.00;
53658;PMS5003;41524;35.624;139.698;2023-09-19T23:10:10;16.00;16.00;
53658;PMS5003;41524;35.624;139.698;2023-09-19T23:15:09;21.00;20.00;
53658;PMS5003;41524;35.624;139.698;2023-09-19T23:20:09;23.00;23.00;
53658;PMS5003;41524;35.624;139.698;2023-09-19T23:25:09;15.00;14.00;
53658;PMS5003;41524;35.624;139.698;2023-09-19T23:30:09;18.00;17.00;
53658;PMS5003;41524;35.624;139.698;2023-09-19T23:35:09;16.00;14.00;
53658;PMS5003;41524;35.624;139.698;2023-09-19T23:40:09;18.00;16.00;
53658;PMS5003;41524;35.624;139.698;2023-09-19T23:45:09;25.00;22.00;
53658;PMS5003;41524;35.624;139.698;2023-09-19T23:50:09;14.00;14.00;
53658;PMS5003;41524;35.624;139.698;2023-09-19T23:55:09;18.00;18.00;
